Emma, Illinois
Current Conditions -  °F | °C
As of 11:35 AM on Friday 31 Oct 2014 (Local Time) from KCUL Reporting Station
Overcast Overcast  
Wind Chill: 37°   Ceiling: 3800
Heat Index: 46°   Visibility: 10mi
Dew Point: 34°   Wind: 24mph
Humidity: 64%   Direction: 320°NW
Pressure: 30.14"   Gusts: NA
Location:  37.97°N, 88.12°W
Report Text: KCUL 311635Z AUTO 32021KT 10SM BKN038 OVC046 08/01 A3014 RMK AO2 T00760011
Loading
Personal Weather Stations






























Interactive Weather Map
Tropical Storm Tracking
New forecast layout! Learn more

10-Day Weather Forecast

Advertisements
Track Severe Weather on mobile